F/V Jeremi Simon — FHAF — position and weather

sailwx.info

Track history (hours):
 
Tides and Currents Weather Stations Pressure Air Temp Water Temp Dewpoint Dewpoint Depression Visibility Wind Speed Wind Dir Waves Ship Positions

F/V Jeremi Simon

Last reported at 2017-Feb-22 16:04 UTC. Time now 2017-Feb-23 04:50 UTC.
Position N 45°32' W 001°58'.

Length 20 m.

Type: Other ship. MMSI: 227415000.

Date/timePositionNaut miles runAvg speedWind from/ knotsBaromVisibWave heightAir tempDewpointWater temp
2017-Feb-22 16:04N 45°32' W 001°58'2 4.0
2017-Feb-22 15:33N 45°32' W 001°56'4 0.6
2017-Feb-22 08:28N 45°36' W 001°53'32 1.8
2017-Feb-21 15:06N 46°08' W 001°50'610.2
2017-Feb-21 14:33N 46°13' W 001°51'1010.0
2017-Feb-21 13:33N 46°23' W 001°53'1010.1
2017-Feb-21 12:33N 46°33' W 001°55'9 4.4
2017-Feb-21 10:33N 46°42' W 001°56'2 1.6
2017-Feb-21 09:33N 46°40' W 001°58'1010.1
2017-Feb-21 08:33N 46°30' W 001°59'1210.2
2017-Feb-21 07:25N 46°19' W 001°60'63 1.3
2017-Feb-19 08:33N 45°19' W 001°31'42 1.8
2017-Feb-18 09:27N 45°60' W 001°46'9 9.9
2017-Feb-18 08:31N 46°09' W 001°48'9 9.7
2017-Feb-18 07:33N 46°18' W 001°51'1010.0
2017-Feb-18 06:33N 46°28' W 001°54'1010.0
2017-Feb-18 05:33N 46°38' W 001°56'4 0.1
2017-Feb-16 22:18N 46°42' W 001°56'0 0.1
2017-Feb-16 21:33N 46°42' W 001°57'4 4.2
2017-Feb-16 20:33N 46°38' W 001°56'1010.3
2017-Feb-16 19:33N 46°28' W 001°52'1010.3
2017-Feb-16 18:33N 46°18' W 001°48'34 0.9
2017-Feb-15 05:23N 45°45' W 001°35'25 0.8
2017-Feb-13 20:33N 46°08' W 001°50'1010.1
2017-Feb-13 19:33N 46°18' W 001°52'1010.1
2017-Feb-13 18:33N 46°28' W 001°54'10 9.7
2017-Feb-13 17:33N 46°38' W 001°57'  
Track history (hours):
 
Tides and Currents Weather Stations Pressure Air Temp Water Temp Dewpoint Dewpoint Depression Visibility Wind Speed Wind Dir Waves Ship Positions

F/V Jeremi Simon

Last reported at 2017-Feb-22 16:04 UTC. Time now 2017-Feb-23 04:50 UTC.
Position N 45°32' W 001°58'.

Length 20 m.

Type: Other ship. MMSI: 227415000.

Date/timePositionNaut miles runAvg speedWind from/ knotsBaromVisibWave heightAir tempDewpointWater temp
2017-Feb-22 16:04N 45°32' W 001°58'2 4.0
2017-Feb-22 15:33N 45°32' W 001°56'4 0.6
2017-Feb-22 08:28N 45°36' W 001°53'32 1.8
2017-Feb-21 15:06N 46°08' W 001°50'610.2
2017-Feb-21 14:33N 46°13' W 001°51'1010.0
2017-Feb-21 13:33N 46°23' W 001°53'1010.1
2017-Feb-21 12:33N 46°33' W 001°55'9 4.4
2017-Feb-21 10:33N 46°42' W 001°56'2 1.6
2017-Feb-21 09:33N 46°40' W 001°58'1010.1
2017-Feb-21 08:33N 46°30' W 001°59'1210.2
2017-Feb-21 07:25N 46°19' W 001°60'63 1.3
2017-Feb-19 08:33N 45°19' W 001°31'42 1.8
2017-Feb-18 09:27N 45°60' W 001°46'9 9.9
2017-Feb-18 08:31N 46°09' W 001°48'9 9.7
2017-Feb-18 07:33N 46°18' W 001°51'1010.0
2017-Feb-18 06:33N 46°28' W 001°54'1010.0
2017-Feb-18 05:33N 46°38' W 001°56'4 0.1
2017-Feb-16 22:18N 46°42' W 001°56'0 0.1
2017-Feb-16 21:33N 46°42' W 001°57'4 4.2
2017-Feb-16 20:33N 46°38' W 001°56'1010.3
2017-Feb-16 19:33N 46°28' W 001°52'1010.3
2017-Feb-16 18:33N 46°18' W 001°48'34 0.9
2017-Feb-15 05:23N 45°45' W 001°35'25 0.8
2017-Feb-13 20:33N 46°08' W 001°50'1010.1
2017-Feb-13 19:33N 46°18' W 001°52'1010.1
2017-Feb-13 18:33N 46°28' W 001°54'10 9.7
2017-Feb-13 17:33N 46°38' W 001°57'  

Dump ship's entire track history